Latest Weather Observations for Port Pirie Airport AWS***

IDS60801

Issued at 3:35 pm CDT Saturday 29 November 2014 (issued every 30 minutes, with the page automatically refreshed every 10 minutes)

About weather observations | Map of weather stations | Latest weather observations for SA | Other Formats
Station Details ID: 250006 Name: PORT PIRIE AERODROME AWS Lat: -33.23 Lon: 138.00 Height: 10.0 m
Data from the previous 72 hours. | See also: Recent months for locations in South Australia
Date/Time
CDT
Temp
°C
App
Temp
°C
Dew
Point
Rel
Hum
%
Delta-T
°C
Wind Press
QNH
hPa
Press
MSL
hPa
Rain
since 9 am
mm
Dir
 
Spd
km/h
Gust
km/h
Spd
kts
Gust
kts
29/03:30pm 35.3 31.7 0.4 11 17.4 WNW 9 22 5 12 - - 0.0
29/03:00pm 35.6 31.4 -0.7 10 17.8 NW 11 19 6 10 - - 0.0
29/02:30pm 35.9 32.1 -0.5 10 17.9 NNW 9 24 5 13 - - 0.0
29/02:00pm 35.5 32.3 0.6 11 17.5 NNE 7 15 4 8 - - 0.0
29/01:30pm 35.3 31.7 0.4 11 17.4 NW 9 19 5 10 - - 0.0
29/01:00pm 35.1 30.3 0.2 11 17.3 NNW 15 24 8 13 - - 0.0
29/12:30pm 34.5 30.4 -0.2 11 17.0 N 11 20 6 11 - - 0.0
29/12:00pm 34.7 29.9 -0.1 11 17.1 NNW 15 26 8 14 - - 0.0
29/11:30am 34.1 30.1 0.7 12 16.6 NNW 11 24 6 13 - - 0.0
29/11:00am 33.8 29.8 0.5 12 16.4 NNW 11 20 6 11 - - 0.0
29/10:30am 33.3 29.4 1.2 13 16.0 N 11 19 6 10 - - 0.0
29/10:00am 32.2 28.4 4.1 17 14.6 N 13 24 7 13 - - 0.0
29/09:30am 31.9 27.2 1.1 14 15.2 N 15 26 8 14 - - 0.0
29/09:00am 31.1 26.2 -0.5 13 15.1 NNE 15 22 8 12 - - 0.0
29/08:30am 28.4 25.7 2.6 19 12.7 NE 6 13 3 7 - - 0.0
29/08:00am 24.6 22.5 3.8 26 10.2 NNW 4 6 2 3 - - 0.0
29/07:30am 21.6 19.1 1.8 27 9.2 WSW 4 6 2 3 - - 0.0
29/07:00am 19.4 16.5 1.4 30 8.1 WSW 6 7 3 4 - - 0.0
29/06:30am 17.4 14.4 0.6 32 7.3 SSW 6 7 3 4 - - 0.0
29/06:00am 18.6 16.3 0.2 29 8.1 SW 2 6 1 3 - - 0.0
29/05:30am 19.5 16.7 -0.5 26 8.7 SSW 4 9 2 5 - - 0.0
29/05:00am 21.7 18.8 -0.9 22 9.9 N 4 9 2 5 - - 0.0
29/04:30am 22.3 19.5 -0.4 22 10.1 SE 4 9 2 5 - - 0.0
29/04:00am 22.8 19.1 0.0 22 10.3 SSE 9 15 5 8 - - 0.0
29/03:30am 22.5 18.9 0.4 23 10.0 SSE 9 19 5 10 - - 0.0
29/03:00am 23.5 19.0 -0.1 21 10.7 ESE 13 24 7 13 - - 0.0
29/02:30am 20.1 16.6 1.5 29 8.5 SE 9 15 5 8 - - 0.0
29/02:00am 19.5 15.3 1.9 31 8.0 SSE 13 17 7 9 - - 0.0
29/01:30am 18.7 14.3 2.5 34 7.4 SSE 15 20 8 11 - - 0.0
29/01:00am 19.1 14.8 3.3 35 7.4 SSE 15 20 8 11 - - 0.0
29/12:30am 20.0 15.1 4.1 35 7.6 SSE 19 26 10 14 - - 0.0
29/12:00am 19.4 15.7 6.5 43 6.5 SSE 15 19 8 10 - - 0.0
 
Date/Time
CDT
Temp
°C
App
Temp
°C
Dew
Point
Rel
Hum
%
Delta-T
°C
Wind Press
QNH
hPa
Press
MSL
hPa
Rain
since 9 am
mm
Dir
 
Spd
km/h
Gust
km/h
Spd
kts
Gust
kts
28/11:30pm 20.4 16.8 8.4 46 6.3 SE 17 26 9 14 - - 0.0
28/11:00pm 21.1 17.7 9.0 46 6.4 SE 17 24 9 13 - - 0.0
28/10:30pm 21.8 18.4 9.0 44 6.8 SE 17 28 9 15 - - 0.0
28/10:00pm 22.4 19.7 7.4 38 7.8 SE 11 17 6 9 - - 0.0
28/09:30pm 24.0 20.6 5.8 31 9.3 SE 13 19 7 10 - - 0.0
28/09:00pm 24.0 21.0 3.9 27 9.9 S 9 13 5 7 - - 0.0
28/08:30pm 25.2 22.1 5.4 28 10.1 S 11 15 6 8 - - 0.0
28/08:00pm 27.9 24.2 4.2 22 12.0 SSW 13 19 7 10 - - 0.0
28/07:30pm 29.7 25.2 4.4 20 13.0 SSW 17 24 9 13 - - 0.0
28/07:00pm 30.4 24.3 2.6 17 13.9 SSW 24 30 13 16 - - 0.0
28/06:30pm 31.1 25.2 4.0 18 14.0 SSW 24 33 13 18 - - 0.0
28/06:00pm 31.7 26.1 3.7 17 14.4 SW 22 32 12 17 - - 0.0
28/05:30pm 32.0 26.7 3.1 16 14.7 SW 20 28 11 15 - - 0.0
28/05:00pm 31.6 26.7 5.2 19 13.9 SW 20 30 11 16 - - 0.0
28/04:30pm 31.1 27.4 6.2 21 13.3 WSW 15 26 8 14 - - 0.0
28/04:00pm 32.0 28.1 5.5 19 14.1 WSW 15 24 8 13 - - 0.0
28/03:30pm 31.9 28.6 4.6 18 14.3 WSW 11 24 6 13 - - 0.0
28/03:00pm 33.1 28.5 3.9 16 15.2 SW 17 30 9 16 - - 0.0
28/02:30pm 32.0 28.0 3.1 16 14.7 WSW 13 24 7 13 - - 0.0
28/02:00pm 31.3 26.9 4.9 19 13.8 WSW 17 30 9 16 - - 0.0
28/01:30pm 32.3 28.5 5.7 19 14.2 WSW 15 26 8 14 - - 0.0
28/01:00pm 32.0 28.1 5.5 19 14.1 WSW 15 26 8 14 - - 0.0
28/12:30pm 31.1 28.0 5.5 20 13.5 W 11 22 6 12 - - 0.0
28/12:00pm 31.2 29.3 4.9 19 13.8 NW 4 9 2 5 - - 0.0
28/11:30am 30.5 28.6 5.0 20 13.3 NNE 4 11 2 6 - - 0.0
28/11:00am 29.2 26.7 3.9 20 12.9 ENE 6 11 3 6 - - 0.0
28/10:30am 29.4 27.0 4.1 20 12.9 NNW 6 13 3 7 - - 0.0
28/10:00am 29.3 27.1 3.3 19 13.1 NE 4 9 2 5 - - 0.0
28/09:30am 27.4 25.1 2.5 20 12.2 SSW 4 11 2 6 - - 0.0
28/09:00am 26.3 24.0 2.9 22 11.5 NE 4 7 2 4 - - 0.0
28/08:30am 25.2 22.0 3.2 24 10.8 SE 9 15 5 8 - - 0.0
28/08:00am 22.7 19.7 4.2 30 9.1 SE 9 13 5 7 - - 0.0
28/07:30am 20.0 17.1 4.5 36 7.5 SE 9 15 5 8 - - 0.0
28/07:00am 17.7 13.6 4.6 42 6.2 SSE 15 20 8 11 - - 0.0
28/06:30am 15.8 12.1 4.5 47 5.3 S 13 19 7 10 - - 0.0
28/06:00am 15.7 12.8 4.4 47 5.3 S 9 15 5 8 - - 0.0
28/05:30am 15.0 11.8 5.0 51 4.7 S 11 15 6 8 - - 0.0
28/05:00am 15.7 12.2 5.3 50 4.9 S 13 17 7 9 - - 0.0
28/04:30am 15.5 12.4 5.7 52 4.7 S 11 13 6 7 - - 0.0
28/04:00am 16.1 13.0 5.7 50 5.0 S 11 15 6 8 - - 0.0
28/03:30am 16.0 13.0 5.9 51 4.9 S 11 15 6 8 - - 0.0
28/03:00am 16.2 13.6 6.1 51 4.9 S 9 11 5 6 - - 0.0
28/02:30am 17.0 13.3 6.5 50 5.2 SSE 15 20 8 11 - - 0.0
28/02:00am 17.3 13.8 7.1 51 5.1 SSE 15 22 8 12 - - 0.0
28/01:30am 17.7 13.5 7.4 51 5.2 SSE 19 26 10 14 - - 0.0
28/01:00am 18.1 14.1 8.1 52 5.1 SSE 19 26 10 14 - - 0.0
28/12:30am 18.0 14.5 8.6 54 4.9 SSE 17 22 9 12 - - 0.0
28/12:00am 18.6 14.7 8.8 53 5.1 SSE 19 30 10 16 - - 0.0
 
Date/Time
CDT
Temp
°C
App
Temp
°C
Dew
Point
Rel
Hum
%
Delta-T
°C
Wind Press
QNH
hPa
Press
MSL
hPa
Rain
since 9 am
mm
Dir
 
Spd
km/h
Gust
km/h
Spd
kts
Gust
kts
27/11:30pm 19.0 16.1 9.5 54 5.0 SE 15 22 8 12 - - 0.0
27/11:00pm 19.5 16.4 10.2 55 5.0 SSE 17 22 9 12 - - 0.0
27/10:30pm 20.3 16.9 10.4 53 5.4 SSE 19 28 10 15 - - 0.0
27/10:00pm 20.6 17.4 10.1 51 5.7 SSE 17 24 9 13 - - 0.0
27/09:30pm 21.5 17.0 10.0 48 6.2 S 24 32 13 17 - - 0.0
27/09:00pm 22.3 19.6 9.1 43 7.1 S 13 19 7 10 - - 0.0
27/08:30pm 23.7 20.2 8.9 39 7.9 S 17 22 9 12 - - 0.0
27/08:00pm 25.3 20.6 9.2 36 8.8 S 24 33 13 18 - - 0.0
27/07:30pm 27.0 21.7 9.8 34 9.5 S 28 37 15 20 - - 0.0
27/07:00pm 28.6 22.4 9.3 30 10.7 S 32 41 17 22 - - 0.0
27/06:30pm 28.5 23.8 12.0 36 9.6 SW 28 37 15 20 - - 0.0
27/06:00pm 27.9 22.0 10.6 34 9.8 SW 32 41 17 22 - - 0.0
27/05:30pm 28.5 23.3 11.6 35 9.7 SW 30 41 16 22 - - 0.0
27/05:00pm 28.9 23.5 11.0 33 10.2 SW 30 41 16 22 - - 0.0
27/04:30pm 29.4 24.0 9.5 29 11.1 SW 28 39 15 21 - - 0.0
27/04:00pm 29.0 23.5 10.6 32 10.5 SW 30 41 16 22 - - 0.0
27/03:30pm 29.1 23.8 9.8 30 10.8 SW 28 39 15 21 - - 0.0
27/03:00pm 29.9 25.5 8.9 27 11.7 WSW 22 41 12 22 - - 0.0
27/02:30pm 30.2 26.2 9.1 27 11.8 WSW 20 33 11 18 - - 0.0
27/02:00pm 29.7 26.5 9.8 29 11.2 WSW 17 32 9 17 - - 0.0
27/01:30pm 29.1 25.7 9.3 29 11.0 WSW 17 32 9 17 - - 0.0
27/01:00pm 29.8 25.7 8.8 27 11.6 SW 20 37 11 20 - - 0.0
27/12:30pm 29.1 26.5 5.9 23 12.2 SSW 9 19 5 10 - - 0.0
27/12:00pm 28.6 26.7 6.7 25 11.6 NNE 6 13 3 7 - - 0.0
27/11:30am 28.2 26.3 6.9 26 11.3 ENE 6 13 3 7 - - 0.0
27/11:00am 27.3 25.5 7.2 28 10.7 S 6 13 3 7 - - 0.0
27/10:30am 25.9 24.0 7.5 31 9.8 NNE 7 13 4 7 - - 0.0
27/10:00am 25.6 24.3 7.7 32 9.5 SE 4 11 2 6 - - 0.0
27/09:30am 24.7 23.1 7.8 34 8.9 E 6 15 3 8 - - 0.0
27/09:00am 23.8 21.3 8.2 37 8.3 E 11 20 6 11 - - 0.0
27/08:30am 22.8 19.8 9.2 42 7.3 ESE 15 22 8 12 - - 0.0
27/08:00am 20.8 17.8 9.4 48 6.1 ESE 15 22 8 12 - - 0.0
27/07:30am 19.3 15.5 9.2 52 5.3 ESE 19 26 10 14 - - 0.0
27/07:00am 18.0 14.1 8.8 55 4.8 SE 19 28 10 15 - - 0.0
27/06:30am 17.0 13.1 8.7 58 4.3 ESE 19 26 10 14 - - 0.0
27/06:00am 16.5 12.6 8.7 60 4.0 ESE 19 26 10 14 - - 0.0
27/05:30am 14.0 11.1 8.0 67 3.0 SE 13 19 7 10 - - 0.0
27/05:00am 14.1 10.4 7.9 66 3.1 SE 17 22 9 12 - - 0.0
27/04:30am 13.9 9.8 7.9 67 3.0 SSE 19 24 10 13 - - 0.0
27/04:00am 13.6 9.4 7.6 67 2.9 SSE 19 24 10 13 - - 0.0
27/03:30am 13.2 10.5 7.2 67 2.9 SSE 11 17 6 9 - - 0.0
27/03:00am 13.7 9.8 7.0 64 3.3 SSE 17 26 9 14 - - 0.0
27/02:30am 14.1 10.2 6.9 62 3.5 SSE 17 24 9 13 - - 0.0
27/02:00am 14.4 10.5 7.0 61 3.6 SSE 17 24 9 13 - - 0.0
27/01:30am 14.5 11.1 7.5 63 3.5 SSE 15 20 8 11 - - 0.0
27/01:00am 14.1 11.5 7.9 66 3.1 S 11 15 6 8 - - 0.0
27/12:30am 14.6 12.2 8.5 67 3.1 S 11 15 6 8 - - 0.0
27/12:00am 14.8 12.6 9.2 69 2.9 S 11 15 6 8 - - 0.0
 
Date/Time
CDT
Temp
°C
App
Temp
°C
Dew
Point
Rel
Hum
%
Delta-T
°C
Wind Press
QNH
hPa
Press
MSL
hPa
Rain
since 9 am
mm
Dir
 
Spd
km/h
Gust
km/h
Spd
kts
Gust
kts
26/11:30pm 14.6 12.7 9.2 70 2.8 S 9 9 5 5 - - 0.0
26/11:00pm 15.3 14.1 9.4 68 3.0 SSE 6 7 3 4 - - 0.0
26/10:30pm 17.2 15.3 10.6 65 3.5 S 11 17 6 9 - - 0.0
26/10:00pm 17.7 15.1 10.6 63 3.8 S 15 20 8 11 - - 0.0
26/09:30pm 18.1 15.7 10.0 59 4.3 S 13 19 7 10 - - 0.0
26/09:00pm 18.8 15.7 9.0 53 5.1 S 15 20 8 11 - - 0.0
26/08:30pm 19.9 15.4 8.6 48 5.9 S 22 30 12 16 - - 0.0
26/08:00pm 21.2 16.2 8.1 43 6.8 S 24 32 13 17 - - 0.0
26/07:30pm 22.8 17.7 7.8 38 7.9 S 24 32 13 17 - - 0.0
26/07:00pm 23.2 18.5 10.6 45 7.0 SW 26 39 14 21 - - 0.0
26/06:30pm 23.8 18.8 10.8 44 7.2 SW 28 37 15 20 - - 0.0
26/06:00pm 24.5 19.8 10.8 42 7.6 SW 26 39 14 21 - - 0.0
26/05:30pm 24.8 19.6 10.3 40 8.0 SW 28 41 15 22 - - 0.0
26/05:00pm 25.3 20.6 10.7 40 8.2 SW 26 37 14 20 - - 0.0
26/04:30pm 24.9 19.9 9.6 38 8.4 SW 26 39 14 21 - - 0.0
26/04:00pm 25.7 21.2 9.9 37 8.7 SW 24 35 13 19 - - 0.0

Other Formats:

Comma delimited format used in spreadsheet applications
http://www.bom.gov.au/fwo/IDS60801/IDS60801.99001.axf

JavaScript Object Notation format (JSON) in row-major order
http://www.bom.gov.au/fwo/IDS60801/IDS60801.99001.json